Worland Municipal Airport
KWRL : rendu visible

Aérodrome :











RETROUVEZ-NOUS SUR...

 
LOGIN :

S'inscrire | Disclaimer

   EN    FR    IT 

 









Légende :    VFR   VFR Marginal   IFR   IFR Intensif   IFR Très Intensif
Visi : 
Plafond : 
>= 8 km
>= 3000ft
5 à 8 km
1000 à 3000 ft
1500m à 5 km
500 à 1000 ft
800 à 1500m
200 à 500 ft
< 800m
< 200 ft
Symboles :   Orages  Brouillard  Fortes neiges  Fortes précipitations  Vent > 20 kt






- Altitude de l'aérodrome : 4227 ft
- Code IATA : WRL


KWRL - Worland Municipal

DERNIER METAR :
  • 290853Z AUTO 17008KT 10SM CLR M01/M08 A2997 RMK AO2 SLP159 T10111078 50001

METARs EXPIRÉS :
  • 290753Z AUTO 16003KT 10SM CLR M02/M08 A2997 RMK AO2 SLP164 T10221078
  • 290653Z AUTO 18003KT 10SM BKN100 M01/M08 A2997 RMK AO2 SLP163 T10061078 401171089

TAF KWRL
Valide du 29 à 06h jusqu'au 30 à 06h UTC


290521Z 2906/3006 VRB05KT P6SM SCT080
FM291200 VRB05KT P6SM SKC
FM292200 17006KT P6SM SCT090



MET'MAP, la Météo Aéronautique d'un coup d'oeil ! - Copyright ORBIFLY Décembre 2007 - Disclaimer

ORBIFLY MET'MAP TEAM :

Programmation & Développement : Alexandra Zaïnal
Sur une idée originale de : Baudouin d'Aumeries
Assistance à la programmation : Marc-Olivier Méhu
Soutien technique & logistique : Manuel Goepfert

Contact : metmap@orbifly.com




SOURCES & CREDITS :

   NOAA       Earth
Advisory